Terminal Aerodrome Forecast
Issued by NWS Charleston, WV

Current Version | Previous Version | Text Only | Print | Product List | Glossary Off
Versions: 1 2 3 4 5 6 7 8 9 10 11 12 13 14 15 16 17 18 19 20 21 22 23

669
FTUS41 KRLX 251518 AAA
TAFCRW
TAF AMD
KCRW 251518Z 2515/2612 03005KT P6SM SCT040 SCT300
     FM260700 VRB03KT 2SM BR SCT001
     FM260800 00000KT 1/2SM FG VV001=

USA.gov is the U.S. government's official web portal to all federal, state and local government web resources and services.